Colby, Kansas
Current Conditions -  °F | °C
As of 1:35 PM on Tuesday 21 Oct 2014 (Local Time) from KCBK Reporting Station
Clear Clear  
Wind Chill: 73°   Ceiling: Unl
Heat Index: 73°   Visibility: 10mi
Dew Point: 57°   Wind: 17mph
Humidity: 57%   Direction: 150°SSE
Pressure: 30.02"   Gusts: 24mph
Location:  39.4°N, 101.04°W
Report Text: KCBK 211835Z AUTO 15015G21KT 10SM CLR 23/14 A3002 RMK AO2
Loading
Personal Weather Stations






























Interactive Weather Map
Tropical Storm Tracking
New forecast layout! Learn more

10-Day Weather Forecast

Advertisements
Track Severe Weather on mobile